createdAt,value
2018-05-23T00:00:28.370Z,7.50
2018-05-23T00:01:03.802Z,9.60
2018-05-23T00:01:40.569Z,10.00
2018-05-23T00:02:15.919Z,8.40
2018-05-23T00:02:53.196Z,8.10
2018-05-23T00:03:28.560Z,7.70
2018-05-23T00:04:03.820Z,7.90
2018-05-23T00:04:39.900Z,9.70
2018-05-23T00:05:16.382Z,9.60
2018-05-23T00:05:51.781Z,9.70
2018-05-23T00:06:27.130Z,8.90
2018-05-23T00:07:02.294Z,8.50
2018-05-23T00:07:37.837Z,8.50
2018-05-23T00:08:13.222Z,7.80
2018-05-23T00:08:48.750Z,7.10
2018-05-23T00:09:24.321Z,8.40
2018-05-23T00:09:59.595Z,9.50
2018-05-23T00:10:34.867Z,10.10
2018-05-23T00:11:10.176Z,11.90
2018-05-23T00:11:45.750Z,9.30
2018-05-23T00:12:21.422Z,7.70
2018-05-23T00:12:57.062Z,7.90
2018-05-23T00:13:32.464Z,7.90
2018-05-23T00:14:07.853Z,7.70
2018-05-23T00:14:43.311Z,8.20
2018-05-23T00:15:18.787Z,8.10
2018-05-23T00:15:56.149Z,7.80
2018-05-23T00:16:31.596Z,8.10
2018-05-23T00:17:06.707Z,8.10
2018-05-23T00:17:42.188Z,7.80
2018-05-23T00:18:17.618Z,8.80
2018-05-23T00:18:53.112Z,9.30
2018-05-23T00:19:28.580Z,11.60
2018-05-23T00:20:04.034Z,11.80
2018-05-23T00:20:42.314Z,9.40
2018-05-23T00:21:17.687Z,9.10
2018-05-23T00:21:53.096Z,8.00
2018-05-23T00:22:28.357Z,8.70
2018-05-23T00:23:03.741Z,8.80
2018-05-23T00:23:39.187Z,10.10
2018-05-23T00:24:14.552Z,9.50
2018-05-23T00:24:50.687Z,8.80
2018-05-23T00:25:26.182Z,7.90
2018-05-23T00:26:01.523Z,7.60
2018-05-23T00:26:36.800Z,6.90
2018-05-23T00:27:11.955Z,8.00
2018-05-23T00:27:47.240Z,11.00
2018-05-23T00:28:22.843Z,11.40
2018-05-23T00:28:58.394Z,10.50
2018-05-23T00:29:33.668Z,9.00
2018-05-23T00:30:09.254Z,9.30
2018-05-23T00:30:46.920Z,7.90
2018-05-23T00:31:22.046Z,7.90
2018-05-23T00:31:57.511Z,8.10
2018-05-23T00:32:33.163Z,7.60
2018-05-23T00:33:08.436Z,8.50
2018-05-23T00:33:43.726Z,9.10
2018-05-23T00:34:19.283Z,10.60
2018-05-23T00:34:54.664Z,8.60
2018-05-23T00:35:30.025Z,10.50
2018-05-23T00:36:06.112Z,11.20
2018-05-23T00:36:43.515Z,9.40
2018-05-23T00:37:18.986Z,9.50
2018-05-23T00:37:54.472Z,9.50
2018-05-23T00:38:30.027Z,8.00
2018-05-23T00:39:05.362Z,9.50
2018-05-23T00:39:41.323Z,7.80
2018-05-23T00:40:18.634Z,9.10
2018-05-23T00:40:54.765Z,11.10
2018-05-23T00:41:30.037Z,9.30
2018-05-23T00:42:05.199Z,8.70
2018-05-23T00:42:40.757Z,10.80
2018-05-23T00:43:16.021Z,10.90
2018-05-23T00:43:53.274Z,10.00
2018-05-23T00:44:28.550Z,8.10
2018-05-23T00:45:03.900Z,8.30
2018-05-23T00:45:39.801Z,9.60
2018-05-23T00:46:14.889Z,9.10
2018-05-23T00:46:50.409Z,9.40
2018-05-23T00:47:25.587Z,9.60
2018-05-23T00:48:01.473Z,8.90
2018-05-23T00:48:37.149Z,7.70
2018-05-23T00:49:12.824Z,9.10
2018-05-23T00:49:48.190Z,8.70
2018-05-23T00:50:23.961Z,8.90
2018-05-23T00:50:59.264Z,9.80
2018-05-23T00:51:34.544Z,7.90
2018-05-23T00:52:09.897Z,8.10
2018-05-23T00:52:45.452Z,8.50
2018-05-23T00:53:20.939Z,10.10
2018-05-23T00:53:58.586Z,10.00
2018-05-23T00:54:33.770Z,7.60
2018-05-23T00:55:09.146Z,8.50
2018-05-23T00:55:44.811Z,9.90
2018-05-23T00:56:20.450Z,11.10
2018-05-23T00:56:56.025Z,11.90
2018-05-23T01:00:10.508Z,10.30
2018-05-23T01:00:46.989Z,8.80
2018-05-23T01:01:22.208Z,8.40
2018-05-23T01:01:57.355Z,9.50
2018-05-23T01:02:32.674Z,10.70
2018-05-23T01:03:08.012Z,11.00
2018-05-23T01:03:43.535Z,9.20
2018-05-23T01:04:18.988Z,10.90
2018-05-23T01:04:54.415Z,10.90
2018-05-23T01:05:29.781Z,8.20
2018-05-23T01:06:05.096Z,8.40
2018-05-23T01:06:40.426Z,10.40
2018-05-23T01:07:15.894Z,13.30
2018-05-23T01:07:51.314Z,12.30
2018-05-23T01:08:26.804Z,10.10
2018-05-23T01:09:03.025Z,11.20
2018-05-23T01:09:38.181Z,9.60
2018-05-23T01:10:13.731Z,9.80
2018-05-23T01:10:50.680Z,10.10
2018-05-23T01:11:25.937Z,8.60
2018-05-23T01:12:01.299Z,11.50
2018-05-23T01:12:36.762Z,14.40
2018-05-23T01:13:11.888Z,12.80
2018-05-23T01:13:47.053Z,11.00
2018-05-23T01:14:22.875Z,11.00
2018-05-23T01:14:58.518Z,11.20
2018-05-23T01:15:33.764Z,11.40
2018-05-23T01:16:09.131Z,10.20
2018-05-23T01:16:46.495Z,11.50
2018-05-23T01:17:22.045Z,13.50
2018-05-23T01:17:57.293Z,12.40
2018-05-23T01:18:32.743Z,10.20
2018-05-23T01:19:08.203Z,10.50
2018-05-23T01:19:43.640Z,9.50
2018-05-23T01:20:18.939Z,10.50
2018-05-23T01:20:54.572Z,10.40
2018-05-23T01:21:29.950Z,11.10
2018-05-23T01:22:05.565Z,9.60
2018-05-23T01:22:40.935Z,11.70
2018-05-23T01:23:16.170Z,12.20
2018-05-23T01:23:51.929Z,9.00
2018-05-23T01:24:27.174Z,8.60
2018-05-23T01:25:02.506Z,9.90
2018-05-23T01:25:38.072Z,10.00
2018-05-23T01:26:13.396Z,9.90
2018-05-23T01:26:49.044Z,9.30
2018-05-23T01:27:24.379Z,11.60
2018-05-23T01:27:59.939Z,12.80
2018-05-23T01:28:35.580Z,12.20
2018-05-23T01:29:10.876Z,11.00
2018-05-23T01:29:46.212Z,9.60
2018-05-23T01:30:21.701Z,12.10
2018-05-23T01:30:57.346Z,12.70
2018-05-23T01:31:33.283Z,8.70
2018-05-23T01:32:08.748Z,10.10
2018-05-23T01:32:44.566Z,12.20
2018-05-23T01:33:19.812Z,11.50
2018-05-23T01:33:55.478Z,10.00
2018-05-23T01:34:31.075Z,12.70
2018-05-23T01:35:06.618Z,13.10
2018-05-23T01:35:41.903Z,11.90
2018-05-23T01:36:17.326Z,11.80
2018-05-23T01:36:52.711Z,16.30
2018-05-23T01:37:27.965Z,18.50
2018-05-23T01:38:03.009Z,13.90
2018-05-23T01:38:38.373Z,15.80
2018-05-23T01:39:13.520Z,12.20
2018-05-23T01:39:48.761Z,12.40
2018-05-23T01:40:24.030Z,12.90
2018-05-23T01:40:59.686Z,12.40
2018-05-23T01:41:35.053Z,12.50
2018-05-23T01:42:10.424Z,10.00
2018-05-23T01:42:45.942Z,16.90
2018-05-23T01:43:21.392Z,15.90
2018-05-23T01:43:56.950Z,11.20
2018-05-23T01:44:32.368Z,13.40
2018-05-23T01:45:07.708Z,12.30
2018-05-23T01:45:42.979Z,13.10
2018-05-23T01:46:18.344Z,12.60
2018-05-23T01:46:53.665Z,12.50
2018-05-23T01:47:29.108Z,11.30
2018-05-23T01:48:04.630Z,10.10
2018-05-23T01:48:40.180Z,11.90
2018-05-23T01:49:15.738Z,12.40
2018-05-23T01:49:51.291Z,11.80
2018-05-23T01:50:26.492Z,12.80
2018-05-23T01:51:03.843Z,12.80
2018-05-23T01:51:39.706Z,13.40
2018-05-23T01:52:14.945Z,12.80
2018-05-23T01:52:50.197Z,10.90
2018-05-23T01:53:25.455Z,10.60
2018-05-23T01:54:00.908Z,11.10
2018-05-23T01:54:36.149Z,11.20
2018-05-23T01:55:11.622Z,14.00
2018-05-23T01:55:47.385Z,12.40
2018-05-23T01:56:22.730Z,10.60
2018-05-23T01:56:58.187Z,13.00
2018-05-23T01:57:33.841Z,12.70
2018-05-23T01:58:09.400Z,14.60
2018-05-23T01:58:44.860Z,12.00
2018-05-23T01:59:20.114Z,12.00
2018-05-23T01:59:55.454Z,9.60
2018-05-23T02:00:30.759Z,10.50
2018-05-23T02:01:06.097Z,10.70
2018-05-23T02:01:41.655Z,11.70
2018-05-23T02:02:16.940Z,11.60
2018-05-23T02:02:52.571Z,11.30
2018-05-23T02:03:28.210Z,9.70
2018-05-23T02:04:03.531Z,13.40
2018-05-23T02:04:38.904Z,10.70
2018-05-23T02:05:14.385Z,8.70
2018-05-23T02:05:50.261Z,9.40
2018-05-23T02:06:25.699Z,12.20
2018-05-23T02:07:01.091Z,12.10
2018-05-23T02:07:36.262Z,10.80
2018-05-23T02:08:17.906Z,12.30
2018-05-23T02:08:53.264Z,10.80
2018-05-23T02:09:28.516Z,12.20
2018-05-23T02:10:03.717Z,11.40
2018-05-23T02:10:39.772Z,9.90
2018-05-23T02:11:15.132Z,10.20
2018-05-23T02:11:50.985Z,9.80
2018-05-23T02:12:26.340Z,12.60
2018-05-23T02:13:01.894Z,13.10
2018-05-23T02:13:37.033Z,11.60
2018-05-23T02:14:12.496Z,11.30
2018-05-23T02:14:48.025Z,10.90
2018-05-23T02:15:23.328Z,10.80
2018-05-23T02:15:58.957Z,11.80
2018-05-23T02:16:36.795Z,12.30
2018-05-23T02:17:12.261Z,14.00
2018-05-23T02:17:49.341Z,12.80
2018-05-23T02:18:24.774Z,10.80
2018-05-23T02:19:00.304Z,10.80
2018-05-23T02:19:35.885Z,12.10
2018-05-23T02:20:11.585Z,11.40
2018-05-23T02:20:47.143Z,10.70
2018-05-23T02:21:22.570Z,12.10
2018-05-23T02:21:58.244Z,12.80
2018-05-23T02:22:33.566Z,12.30
2018-05-23T02:23:09.029Z,10.90
2018-05-23T02:23:45.401Z,11.50
2018-05-23T02:24:20.631Z,13.60
2018-05-23T02:24:58.304Z,15.90
2018-05-23T02:25:33.982Z,13.30
2018-05-23T02:26:09.214Z,12.10
2018-05-23T02:26:45.937Z,13.00
2018-05-23T02:27:21.295Z,12.40
2018-05-23T02:27:56.533Z,11.50
2018-05-23T02:28:31.799Z,11.50
2018-05-23T02:29:07.365Z,11.70
2018-05-23T02:29:44.980Z,10.50
2018-05-23T02:30:20.667Z,10.90
2018-05-23T02:30:56.294Z,12.60
2018-05-23T02:31:31.764Z,13.50
2018-05-23T02:32:07.223Z,11.70
2018-05-23T02:32:42.876Z,13.20
2018-05-23T02:33:18.310Z,15.70
2018-05-23T02:33:53.469Z,15.30
2018-05-23T02:34:28.895Z,12.40
2018-05-23T02:35:04.768Z,12.80
2018-05-23T02:35:40.789Z,12.50
2018-05-23T02:36:18.525Z,13.30
2018-05-23T02:36:53.775Z,14.30
2018-05-23T02:37:29.221Z,17.60
2018-05-23T02:38:04.704Z,16.00
2018-05-23T02:38:39.949Z,14.60
2018-05-23T02:39:15.312Z,15.30
2018-05-23T02:39:50.648Z,13.30
2018-05-23T02:40:26.625Z,14.00
2018-05-23T02:41:01.892Z,12.40
2018-05-23T02:41:37.311Z,13.80
2018-05-23T02:42:12.561Z,15.70
2018-05-23T02:42:47.887Z,14.40
2018-05-23T02:43:27.027Z,14.10
2018-05-23T02:44:02.463Z,12.60
2018-05-23T02:44:38.024Z,12.70
2018-05-23T02:45:14.861Z,11.00
2018-05-23T02:45:50.208Z,11.00
2018-05-23T02:46:27.674Z,12.70
2018-05-23T02:47:03.052Z,13.80
2018-05-23T02:47:38.465Z,12.20
2018-05-23T02:48:14.505Z,12.70
2018-05-23T02:48:51.076Z,14.10
2018-05-23T02:49:26.627Z,13.10
2018-05-23T02:50:02.081Z,12.50
2018-05-23T02:50:40.429Z,12.20
2018-05-23T02:51:16.181Z,13.50
2018-05-23T02:51:54.719Z,14.00
2018-05-23T02:52:31.563Z,13.40
2018-05-23T02:53:06.918Z,15.70
2018-05-23T02:53:42.699Z,15.40
2018-05-23T02:54:18.091Z,15.60
2018-05-23T02:54:53.621Z,14.10
2018-05-23T02:55:28.997Z,12.20
2018-05-23T02:56:04.937Z,13.80
2018-05-23T02:56:40.192Z,14.20
2018-05-23T02:57:15.521Z,12.20
2018-05-23T02:57:54.582Z,14.60
2018-05-23T02:58:30.037Z,13.70
2018-05-23T02:59:08.589Z,14.70
2018-05-23T02:59:44.141Z,13.10
2018-05-23T03:00:19.627Z,15.20
2018-05-23T03:00:55.377Z,12.70
2018-05-23T03:01:30.803Z,15.20
2018-05-23T03:02:06.357Z,14.20
2018-05-23T03:02:41.988Z,14.40
2018-05-23T03:03:17.445Z,14.90
2018-05-23T03:03:52.870Z,11.70
2018-05-23T03:04:28.223Z,13.40
2018-05-23T03:05:03.698Z,13.00
2018-05-23T03:05:39.032Z,13.70
2018-05-23T03:06:14.480Z,13.50
2018-05-23T03:06:50.720Z,13.20
2018-05-23T03:07:26.291Z,15.80
2018-05-23T03:08:01.714Z,15.60
2018-05-23T03:08:37.065Z,16.40
2018-05-23T03:09:12.389Z,14.50
2018-05-23T03:09:47.567Z,13.60
2018-05-23T03:10:23.153Z,13.10
2018-05-23T03:10:58.412Z,14.00
2018-05-23T03:11:33.661Z,13.20
2018-05-23T03:12:09.084Z,13.60
2018-05-23T03:12:44.737Z,15.00
2018-05-23T03:13:19.878Z,13.60
2018-05-23T03:13:55.029Z,12.90
2018-05-23T03:14:30.643Z,14.10
2018-05-23T03:15:06.294Z,14.90
2018-05-23T03:15:41.959Z,14.00
2018-05-23T03:16:17.413Z,13.20
2018-05-23T03:16:52.641Z,14.10
2018-05-23T03:17:27.799Z,14.70
2018-05-23T03:18:03.112Z,14.00
2018-05-23T03:18:38.488Z,16.60
2018-05-23T03:19:13.701Z,15.20
2018-05-23T03:19:49.043Z,14.60
2018-05-23T03:20:24.404Z,14.40
2018-05-23T03:20:59.961Z,15.40
2018-05-23T03:21:35.308Z,15.40
2018-05-23T03:22:10.671Z,14.60
2018-05-23T03:22:46.073Z,16.50
2018-05-23T03:23:21.232Z,20.00
2018-05-23T03:23:56.483Z,15.00
2018-05-23T03:24:31.978Z,13.40
2018-05-23T03:25:07.448Z,15.90
2018-05-23T03:25:43.246Z,18.20
2018-05-23T03:26:18.905Z,16.40
2018-05-23T03:26:54.134Z,15.00
2018-05-23T03:27:29.602Z,15.40
2018-05-23T03:28:04.927Z,16.90
2018-05-23T03:28:40.593Z,18.10
2018-05-23T03:29:15.915Z,19.90
2018-05-23T03:29:51.266Z,17.10
2018-05-23T03:30:26.543Z,19.80
2018-05-23T03:31:01.874Z,17.30
2018-05-23T03:31:37.133Z,15.50
2018-05-23T03:32:12.878Z,16.70
2018-05-23T03:32:48.040Z,18.10
2018-05-23T03:33:23.573Z,17.70
2018-05-23T03:33:59.044Z,15.70
2018-05-23T03:34:34.563Z,15.00
2018-05-23T03:35:09.741Z,14.00
2018-05-23T03:35:45.259Z,14.80
2018-05-23T03:36:20.717Z,18.50
2018-05-23T03:36:56.164Z,22.80
2018-05-23T03:37:31.825Z,19.90
2018-05-23T03:38:07.090Z,15.80
2018-05-23T03:38:43.124Z,13.90
2018-05-23T03:39:18.385Z,16.80
2018-05-23T03:39:53.810Z,18.70
2018-05-23T03:40:29.184Z,16.50
2018-05-23T03:41:04.612Z,16.20
2018-05-23T03:41:39.970Z,18.30
2018-05-23T03:42:15.606Z,20.20
2018-05-23T03:42:51.072Z,18.30
2018-05-23T03:43:26.623Z,17.30
2018-05-23T03:44:01.946Z,18.20
2018-05-23T03:44:37.591Z,17.30
2018-05-23T03:45:12.947Z,16.40
2018-05-23T03:45:48.539Z,15.30
2018-05-23T03:46:23.972Z,17.10
2018-05-23T03:46:59.524Z,17.60
2018-05-23T03:47:34.887Z,15.40
2018-05-23T03:48:10.239Z,14.30
2018-05-23T03:48:47.886Z,16.60
2018-05-23T03:49:23.137Z,17.80
2018-05-23T03:49:58.594Z,16.90
2018-05-23T03:50:34.164Z,15.30
2018-05-23T03:51:09.521Z,17.30
2018-05-23T03:51:45.581Z,17.50
2018-05-23T03:52:21.035Z,16.70
2018-05-23T03:52:56.465Z,20.60
2018-05-23T03:53:31.933Z,17.20
2018-05-23T03:54:07.607Z,14.80
2018-05-23T03:54:44.479Z,18.00
2018-05-23T03:55:20.065Z,18.70
2018-05-23T03:55:55.714Z,17.70
2018-05-23T03:56:31.255Z,16.90
2018-05-23T03:57:06.885Z,14.20
2018-05-23T03:57:42.560Z,15.40
2018-05-23T03:58:17.698Z,18.20
2018-05-23T03:58:52.972Z,19.50
2018-05-23T03:59:28.295Z,19.40
2018-05-23T04:00:03.554Z,17.70
2018-05-23T04:00:40.215Z,17.50
2018-05-23T04:01:15.783Z,19.00
2018-05-23T04:01:51.569Z,20.40
2018-05-23T04:02:27.516Z,19.40
2018-05-23T04:03:02.793Z,18.60
2018-05-23T04:03:38.220Z,18.80
2018-05-23T04:04:13.468Z,19.50
2018-05-23T04:04:50.750Z,15.80
2018-05-23T04:05:26.959Z,14.80
2018-05-23T04:06:02.498Z,16.00
2018-05-23T04:06:37.844Z,16.20
2018-05-23T04:07:13.000Z,16.80
2018-05-23T04:07:48.624Z,16.00
2018-05-23T04:08:24.097Z,17.40
2018-05-23T04:08:59.325Z,17.10
2018-05-23T04:09:34.645Z,17.00
2018-05-23T04:10:10.007Z,17.60
2018-05-23T04:10:47.269Z,19.80
2018-05-23T04:11:22.717Z,18.70
2018-05-23T04:11:58.072Z,18.90
2018-05-23T04:12:33.532Z,18.20
2018-05-23T04:13:08.866Z,16.80
2018-05-23T04:13:44.630Z,16.80
2018-05-23T04:14:20.163Z,17.20
2018-05-23T04:14:55.537Z,20.20
2018-05-23T04:15:31.139Z,20.80
2018-05-23T04:16:06.469Z,20.90
2018-05-23T04:16:41.638Z,19.20
2018-05-23T04:17:16.997Z,18.40
2018-05-23T04:17:52.436Z,17.50
2018-05-23T04:18:27.794Z,21.20
2018-05-23T04:19:03.369Z,18.70
2018-05-23T04:19:38.621Z,22.70
2018-05-23T04:20:14.094Z,22.70
2018-05-23T04:20:51.227Z,19.50
2018-05-23T04:21:26.610Z,22.80
2018-05-23T04:22:02.268Z,18.20
2018-05-23T04:22:37.618Z,17.30
2018-05-23T04:23:13.063Z,17.80
2018-05-23T04:23:48.335Z,18.90
2018-05-23T04:24:23.693Z,19.00
2018-05-23T04:24:59.003Z,18.50
2018-05-23T04:25:34.089Z,20.30
2018-05-23T04:26:09.417Z,19.60
2018-05-23T04:26:46.500Z,17.60
2018-05-23T04:27:22.059Z,18.90
2018-05-23T04:27:57.311Z,20.70
2018-05-23T04:28:32.853Z,19.60
2018-05-23T04:29:08.119Z,21.40
2018-05-23T04:29:44.163Z,18.60
2018-05-23T04:30:19.469Z,18.30
2018-05-23T04:30:56.321Z,16.50
2018-05-23T04:31:31.945Z,17.60
2018-05-23T04:32:07.714Z,20.30
2018-05-23T04:32:43.164Z,21.10
2018-05-23T04:33:18.631Z,20.20
2018-05-23T04:33:54.167Z,19.20
2018-05-23T04:34:29.516Z,22.70
2018-05-23T04:35:05.059Z,21.80
2018-05-23T04:35:40.836Z,19.40
2018-05-23T04:36:16.296Z,18.10
2018-05-23T04:36:51.706Z,15.60
2018-05-23T04:37:27.339Z,21.80
2018-05-23T04:38:02.473Z,24.10
2018-05-23T04:38:37.856Z,17.50
2018-05-23T04:39:13.487Z,17.10
2018-05-23T04:39:49.845Z,18.50
2018-05-23T04:40:25.131Z,22.50
2018-05-23T04:41:00.579Z,26.50
2018-05-23T04:41:36.396Z,21.10
2018-05-23T04:42:11.759Z,20.60
2018-05-23T04:42:47.019Z,22.50
2018-05-23T04:43:22.542Z,21.90
2018-05-23T04:43:58.087Z,20.20
2018-05-23T04:44:33.534Z,15.10
2018-05-23T04:45:08.989Z,18.40
2018-05-23T04:45:47.735Z,20.90
2018-05-23T04:46:24.121Z,21.30
2018-05-23T04:46:59.450Z,18.50
2018-05-23T04:47:35.015Z,19.60
2018-05-23T04:48:10.489Z,19.40
2018-05-23T04:48:45.706Z,20.40
2018-05-23T04:49:20.891Z,19.10
2018-05-23T04:49:56.264Z,19.30
2018-05-23T04:50:31.647Z,18.80
2018-05-23T04:51:07.085Z,18.90
2018-05-23T04:51:42.358Z,17.20
2018-05-23T04:52:17.789Z,16.40
2018-05-23T04:52:53.387Z,17.20
2018-05-23T04:53:28.614Z,14.80
2018-05-23T04:54:06.666Z,15.60
2018-05-23T04:54:42.037Z,17.70
2018-05-23T04:55:17.219Z,18.50
2018-05-23T04:55:56.886Z,19.90
2018-05-23T04:56:32.247Z,19.60
2018-05-23T04:57:11.317Z,18.00
2018-05-23T04:57:49.355Z,20.50
2018-05-23T04:58:24.606Z,20.60
2018-05-23T04:59:00.173Z,16.70
2018-05-23T04:59:35.642Z,16.80
2018-05-23T05:00:11.132Z,17.30
2018-05-23T05:00:50.576Z,17.40
2018-05-23T05:01:26.135Z,18.10
2018-05-23T05:02:01.574Z,17.80
2018-05-23T05:02:36.954Z,17.60
2018-05-23T05:03:12.408Z,17.20
2018-05-23T05:03:47.765Z,17.80
2018-05-23T05:04:22.966Z,15.40
2018-05-23T05:04:58.291Z,15.80
2018-05-23T05:05:33.555Z,17.30
2018-05-23T05:06:09.025Z,19.30
2018-05-23T05:06:44.400Z,20.30
2018-05-23T05:07:19.743Z,18.60
2018-05-23T05:07:55.290Z,19.80
2018-05-23T05:08:30.739Z,18.40
2018-05-23T05:09:06.197Z,19.60
2018-05-23T05:09:41.740Z,17.60
2018-05-23T05:10:17.230Z,16.80
2018-05-23T05:10:52.457Z,18.80
2018-05-23T05:11:27.590Z,21.60
2018-05-23T05:12:03.234Z,17.70
2018-05-23T05:12:39.205Z,19.50
2018-05-23T05:13:14.650Z,19.30
2018-05-23T05:13:50.028Z,18.40
2018-05-23T05:14:25.437Z,18.40
2018-05-23T05:15:00.576Z,17.70
2018-05-23T05:15:36.212Z,17.90
2018-05-23T05:16:11.665Z,18.70
2018-05-23T05:16:47.027Z,18.80
2018-05-23T05:17:22.489Z,17.00
2018-05-23T05:17:57.644Z,17.30
2018-05-23T05:18:33.166Z,18.50
2018-05-23T05:19:08.648Z,17.10
2018-05-23T05:19:44.201Z,15.70
2018-05-23T05:20:19.564Z,16.30
2018-05-23T05:20:57.537Z,18.30
2018-05-23T05:21:33.064Z,17.80
2018-05-23T05:22:08.550Z,20.20
2018-05-23T05:22:43.909Z,18.60
2018-05-23T05:23:19.161Z,15.40
2018-05-23T05:23:54.518Z,20.00
2018-05-23T05:24:29.692Z,21.60
2018-05-23T05:25:05.183Z,19.40
2018-05-23T05:25:41.344Z,17.60
2018-05-23T05:26:17.100Z,16.60
2018-05-23T05:26:52.417Z,17.80
2018-05-23T05:27:27.793Z,20.80
2018-05-23T05:28:03.312Z,26.20
2018-05-23T05:28:38.866Z,18.90
2018-05-23T05:29:14.388Z,16.60
2018-05-23T05:29:49.873Z,20.10
2018-05-23T05:30:25.383Z,18.70
2018-05-23T05:31:00.937Z,19.30
2018-05-23T05:31:36.252Z,17.60
2018-05-23T05:32:11.788Z,22.80
2018-05-23T05:32:47.258Z,18.20
2018-05-23T05:33:22.386Z,18.40
2018-05-23T05:33:57.739Z,19.00
2018-05-23T05:34:33.076Z,20.50
2018-05-23T05:35:08.429Z,17.70
2018-05-23T05:35:46.292Z,19.40
2018-05-23T05:36:21.528Z,19.90
2018-05-23T05:36:56.819Z,23.20
2018-05-23T05:37:32.179Z,16.10
2018-05-23T05:38:07.543Z,22.50
2018-05-23T05:38:43.141Z,24.70
2018-05-23T05:39:18.353Z,22.30
2018-05-23T05:39:54.017Z,16.30
2018-05-23T05:40:29.583Z,19.20
2018-05-23T05:41:04.662Z,25.00
2018-05-23T05:41:40.125Z,19.20
2018-05-23T05:42:15.662Z,18.70
2018-05-23T05:42:51.040Z,17.30
2018-05-23T05:43:26.510Z,19.10
2018-05-23T05:44:01.961Z,17.70
2018-05-23T05:44:37.414Z,16.80
2018-05-23T05:45:12.977Z,21.10
2018-05-23T05:45:50.753Z,21.10
2018-05-23T05:46:25.812Z,19.20
2018-05-23T05:47:01.303Z,23.40
2018-05-23T05:47:36.818Z,23.00
2018-05-23T05:48:12.278Z,19.00
2018-05-23T05:48:47.641Z,21.90
2018-05-23T05:49:22.800Z,18.90
2018-05-23T05:49:59.471Z,15.30
2018-05-23T05:50:34.838Z,17.50
2018-05-23T05:51:10.509Z,19.20
2018-05-23T05:51:46.414Z,21.90
2018-05-23T05:52:21.996Z,18.20
2018-05-23T05:52:57.332Z,16.70
2018-05-23T05:53:32.974Z,19.10
2018-05-23T05:54:08.376Z,17.80
2018-05-23T05:54:44.118Z,18.50
2018-05-23T05:55:19.518Z,20.30
2018-05-23T05:55:55.094Z,17.20
2018-05-23T05:56:30.666Z,17.40
2018-05-23T05:57:06.121Z,22.00
2018-05-23T05:57:41.704Z,20.60
2018-05-23T05:58:16.962Z,21.80
2018-05-23T05:58:52.467Z,22.80
2018-05-23T05:59:27.622Z,19.70
2018-05-23T06:00:02.977Z,18.40
2018-05-23T06:00:41.159Z,17.60
2018-05-23T06:01:16.714Z,15.50
2018-05-23T06:01:52.262Z,18.10
2018-05-23T06:02:27.533Z,21.30
2018-05-23T06:03:02.878Z,24.10
2018-05-23T06:03:38.119Z,21.30
2018-05-23T06:04:13.572Z,14.30
2018-05-23T06:04:51.634Z,14.50
2018-05-23T06:05:27.038Z,17.00
2018-05-23T06:06:03.210Z,20.60
2018-05-23T06:06:38.892Z,20.30
2018-05-23T06:07:14.361Z,19.50
2018-05-23T06:07:49.709Z,16.70
2018-05-23T06:08:25.357Z,16.20
2018-05-23T06:09:00.719Z,16.50
2018-05-23T06:09:36.121Z,20.50
2018-05-23T06:10:11.478Z,25.80
2018-05-23T06:10:49.151Z,19.70
2018-05-23T06:11:24.507Z,16.40
2018-05-23T06:11:59.890Z,16.70
2018-05-23T06:12:35.240Z,19.60
2018-05-23T06:13:10.580Z,16.30
2018-05-23T06:13:46.049Z,19.00
2018-05-23T06:14:21.488Z,18.60
2018-05-23T06:14:56.951Z,20.30
2018-05-23T06:15:35.866Z,16.30
2018-05-23T06:16:14.567Z,14.80
2018-05-23T06:16:49.819Z,17.90
2018-05-23T06:17:25.381Z,15.60
2018-05-23T06:18:01.048Z,13.90
2018-05-23T06:18:36.888Z,16.30
2018-05-23T06:19:12.186Z,16.80
2018-05-23T06:19:47.716Z,17.70
2018-05-23T06:20:23.209Z,15.90
2018-05-23T06:20:58.556Z,16.60
2018-05-23T06:21:34.073Z,14.90
2018-05-23T06:22:09.503Z,16.60
2018-05-23T06:22:44.777Z,13.50
2018-05-23T06:23:20.160Z,15.00
2018-05-23T06:23:55.412Z,17.60
2018-05-23T06:24:31.378Z,17.40
2018-05-23T06:25:06.913Z,15.40
2018-05-23T06:25:44.016Z,14.30
2018-05-23T06:26:19.374Z,14.60
2018-05-23T06:26:55.631Z,23.30
2018-05-23T06:27:31.083Z,17.70
2018-05-23T06:28:06.355Z,14.10
2018-05-23T06:28:41.707Z,15.60
2018-05-23T06:29:17.157Z,13.70
2018-05-23T06:29:52.924Z,14.80
2018-05-23T06:30:28.445Z,14.10
2018-05-23T06:31:04.487Z,14.50
2018-05-23T06:31:39.922Z,14.40
2018-05-23T06:32:15.202Z,14.80
2018-05-23T06:32:50.471Z,16.50
2018-05-23T06:33:25.751Z,21.00
2018-05-23T06:34:01.098Z,21.00
2018-05-23T06:34:36.453Z,17.00
2018-05-23T06:35:11.815Z,13.70
2018-05-23T06:35:49.499Z,14.60
2018-05-23T06:36:25.249Z,13.20
2018-05-23T06:37:00.594Z,13.10
2018-05-23T06:37:36.061Z,15.60
2018-05-23T06:38:11.610Z,14.10
2018-05-23T06:38:47.094Z,13.30
2018-05-23T06:39:22.523Z,13.40
2018-05-23T06:39:57.984Z,13.70
2018-05-23T06:40:33.360Z,14.60
2018-05-23T06:41:09.425Z,14.30
2018-05-23T06:41:45.112Z,11.90
2018-05-23T06:42:20.581Z,13.10
2018-05-23T06:42:56.038Z,15.30
2018-05-23T06:43:31.342Z,15.70
2018-05-23T06:44:06.937Z,14.30
2018-05-23T06:44:42.493Z,18.80
2018-05-23T06:45:17.896Z,18.40
2018-05-23T06:45:53.437Z,18.20
2018-05-23T06:46:28.826Z,14.90
2018-05-23T06:47:04.168Z,15.70
2018-05-23T06:47:40.037Z,16.20
2018-05-23T06:48:15.302Z,15.90
2018-05-23T06:48:52.229Z,15.80
2018-05-23T06:49:27.405Z,15.30
2018-05-23T06:50:02.955Z,15.10
2018-05-23T06:50:38.661Z,16.90
2018-05-23T06:51:16.389Z,18.10
2018-05-23T06:51:57.481Z,18.90
2018-05-23T06:52:32.769Z,14.50
2018-05-23T06:53:08.206Z,16.20
2018-05-23T06:53:43.588Z,16.40
2018-05-23T06:54:18.924Z,14.10
2018-05-23T06:54:54.386Z,16.00
2018-05-23T06:55:31.948Z,16.20
2018-05-23T06:56:07.108Z,16.70
2018-05-23T06:56:42.660Z,18.20
2018-05-23T06:57:21.332Z,16.30
2018-05-23T07:00:36.754Z,16.50
2018-05-23T07:01:15.167Z,18.20
2018-05-23T07:01:56.988Z,17.90
2018-05-23T07:04:33.890Z,15.70
2018-05-23T07:05:12.770Z,17.90
2018-05-23T07:05:48.152Z,20.10
2018-05-23T07:06:23.592Z,18.60
2018-05-23T07:06:59.024Z,15.70
2018-05-23T07:07:34.367Z,13.50
2018-05-23T07:08:09.810Z,13.60
2018-05-23T07:08:45.355Z,14.50
2018-05-23T07:09:20.695Z,14.30
2018-05-23T07:09:56.339Z,16.30
2018-05-23T07:10:32.305Z,20.50
2018-05-23T07:11:07.582Z,18.10
2018-05-23T07:11:42.785Z,13.80
2018-05-23T07:12:18.232Z,13.80
2018-05-23T07:12:53.577Z,15.10
2018-05-23T07:13:28.823Z,13.00
2018-05-23T07:14:04.354Z,14.80
2018-05-23T07:14:40.014Z,13.90
2018-05-23T07:15:15.358Z,14.10
2018-05-23T07:15:50.528Z,18.70
2018-05-23T07:16:25.838Z,18.10
2018-05-23T07:17:01.219Z,13.70
2018-05-23T07:17:36.561Z,13.00
2018-05-23T07:18:12.212Z,16.40
2018-05-23T07:18:47.746Z,17.30
2018-05-23T07:19:23.463Z,15.90
2018-05-23T07:19:58.912Z,13.90
2018-05-23T07:20:34.361Z,14.70
2018-05-23T07:21:10.109Z,14.60
2018-05-23T07:21:47.034Z,12.90
2018-05-23T07:22:22.388Z,13.10
2018-05-23T07:22:57.435Z,14.30
2018-05-23T07:23:32.682Z,15.90
2018-05-23T07:24:07.942Z,17.20
2018-05-23T07:24:43.483Z,16.30
2018-05-23T07:25:18.796Z,15.40
2018-05-23T07:25:54.458Z,19.00
2018-05-23T07:26:30.086Z,17.30
2018-05-23T07:27:05.315Z,18.50
2018-05-23T07:27:41.462Z,12.90
2018-05-23T07:28:16.902Z,12.60
2018-05-23T07:28:52.466Z,14.00
2018-05-23T07:29:27.832Z,13.50
2018-05-23T07:30:03.274Z,15.80
2018-05-23T07:30:39.485Z,21.00
2018-05-23T07:31:14.722Z,20.00
2018-05-23T07:31:51.833Z,17.80
2018-05-23T07:32:26.888Z,19.70
2018-05-23T07:33:02.539Z,15.10
2018-05-23T07:33:37.761Z,13.10
2018-05-23T07:34:13.516Z,17.20
2018-05-23T07:34:49.156Z,15.30
2018-05-23T07:35:24.457Z,14.20
2018-05-23T07:35:59.926Z,16.60
2018-05-23T07:36:35.455Z,14.30
2018-05-23T07:37:10.737Z,13.80
2018-05-23T07:37:46.097Z,14.00
2018-05-23T07:38:21.469Z,16.50
2018-05-23T07:38:57.115Z,13.10
2018-05-23T07:39:32.675Z,13.90
2018-05-23T07:40:08.127Z,13.40
2018-05-23T07:40:43.596Z,13.50
2018-05-23T07:41:19.152Z,12.60
2018-05-23T07:41:54.280Z,11.40
2018-05-23T07:42:29.547Z,11.40
2018-05-23T07:43:04.989Z,16.00
2018-05-23T07:43:41.372Z,14.90
2018-05-23T07:44:16.816Z,13.20
2018-05-23T07:44:52.585Z,13.90
2018-05-23T07:45:27.840Z,13.50
2018-05-23T07:46:03.597Z,13.70
2018-05-23T07:46:38.921Z,14.30
2018-05-23T07:47:14.382Z,13.30
2018-05-23T07:47:51.733Z,13.50
2018-05-23T07:48:27.259Z,13.30